sensor_id;sensor_type;location;lat;lon;timestamp;pressure;altitude;pressure_sealevel;temperature;humidity
50011;BME280;35899;50.352;19.390;2023-02-21T00:01:36;97048.00;;;7.72;93.24
50011;BME280;35899;50.352;19.390;2023-02-21T00:04:03;97036.25;;;7.72;92.73
50011;BME280;35899;50.352;19.390;2023-02-21T00:06:29;97046.45;;;7.74;92.94
50011;BME280;35899;50.352;19.390;2023-02-21T00:08:56;97049.46;;;7.75;92.95
50011;BME280;35899;50.352;19.390;2023-02-21T00:11:22;97046.50;;;7.76;92.91
50011;BME280;35899;50.352;19.390;2023-02-21T00:13:49;97047.09;;;7.75;92.72
50011;BME280;35899;50.352;19.390;2023-02-21T00:16:16;97049.83;;;7.75;92.79
50011;BME280;35899;50.352;19.390;2023-02-21T00:18:46;97040.00;;;7.75;92.41
50011;BME280;35899;50.352;19.390;2023-02-21T00:21:12;97036.88;;;7.76;92.67
50011;BME280;35899;50.352;19.390;2023-02-21T00:23:39;97041.74;;;7.75;93.06
50011;BME280;35899;50.352;19.390;2023-02-21T00:26:05;97043.09;;;7.73;92.79
50011;BME280;35899;50.352;19.390;2023-02-21T00:28:32;97057.93;;;7.70;93.59
50011;BME280;35899;50.352;19.390;2023-02-21T00:30:58;97047.03;;;7.66;93.61
50011;BME280;35899;50.352;19.390;2023-02-21T00:33:25;97050.70;;;7.61;93.92
50011;BME280;35899;50.352;19.390;2023-02-21T00:35:51;97044.96;;;7.57;94.13
50011;BME280;35899;50.352;19.390;2023-02-21T00:38:18;97036.73;;;7.54;94.40
50011;BME280;35899;50.352;19.390;2023-02-21T00:40:44;97038.57;;;7.52;94.77
50011;BME280;35899;50.352;19.390;2023-02-21T00:43:11;97030.69;;;7.49;94.74
50011;BME280;35899;50.352;19.390;2023-02-21T00:45:37;97026.71;;;7.47;95.25
50011;BME280;35899;50.352;19.390;2023-02-21T00:48:03;97035.16;;;7.44;95.15
50011;BME280;35899;50.352;19.390;2023-02-21T00:50:30;97033.36;;;7.43;95.35
50011;BME280;35899;50.352;19.390;2023-02-21T00:52:56;97035.93;;;7.41;95.62
50011;BME280;35899;50.352;19.390;2023-02-21T00:55:23;97034.60;;;7.38;95.72
50011;BME280;35899;50.352;19.390;2023-02-21T00:57:49;97026.00;;;7.35;96.00
50011;BME280;35899;50.352;19.390;2023-02-21T01:00:17;97031.99;;;7.31;96.25
50011;BME280;35899;50.352;19.390;2023-02-21T01:02:44;97018.77;;;7.26;97.39
50011;BME280;35899;50.352;19.390;2023-02-21T01:05:10;97027.66;;;7.19;98.02
50011;BME280;35899;50.352;19.390;2023-02-21T01:07:36;97031.89;;;7.13;98.34
50011;BME280;35899;50.352;19.390;2023-02-21T01:10:05;97025.98;;;7.07;98.66
50011;BME280;35899;50.352;19.390;2023-02-21T01:12:31;97024.81;;;7.01;98.99
50011;BME280;35899;50.352;19.390;2023-02-21T01:14:57;97035.40;;;6.95;99.46
50011;BME280;35899;50.352;19.390;2023-02-21T01:17:24;97034.30;;;6.88;99.88
50011;BME280;35899;50.352;19.390;2023-02-21T01:19:51;97029.27;;;6.82;100.00
50011;BME280;35899;50.352;19.390;2023-02-21T01:22:17;97032.03;;;6.76;100.00
50011;BME280;35899;50.352;19.390;2023-02-21T01:24:44;97028.73;;;6.72;100.00
50011;BME280;35899;50.352;19.390;2023-02-21T01:27:10;97036.98;;;6.67;100.00
50011;BME280;35899;50.352;19.390;2023-02-21T01:29:36;97026.15;;;6.61;100.00
50011;BME280;35899;50.352;19.390;2023-02-21T01:32:03;97032.81;;;6.58;100.00
50011;BME280;35899;50.352;19.390;2023-02-21T01:34:30;97025.14;;;6.54;100.00
50011;BME280;35899;50.352;19.390;2023-02-21T01:36:56;97022.56;;;6.51;100.00
50011;BME280;35899;50.352;19.390;2023-02-21T01:39:23;97019.42;;;6.50;100.00
50011;BME280;35899;50.352;19.390;2023-02-21T01:41:49;97014.68;;;6.46;100.00
50011;BME280;35899;50.352;19.390;2023-02-21T01:46:54;97017.00;;;6.42;100.00
50011;BME280;35899;50.352;19.390;2023-02-21T01:49:20;97006.23;;;6.41;100.00
50011;BME280;35899;50.352;19.390;2023-02-21T01:51:47;97003.36;;;6.40;100.00
50011;BME280;35899;50.352;19.390;2023-02-21T01:54:14;97006.52;;;6.39;100.00
50011;BME280;35899;50.352;19.390;2023-02-21T01:56:40;96998.15;;;6.39;100.00
50011;BME280;35899;50.352;19.390;2023-02-21T01:59:07;97000.30;;;6.38;100.00
50011;BME280;35899;50.352;19.390;2023-02-21T02:01:49;96998.42;;;6.37;100.00
50011;BME280;35899;50.352;19.390;2023-02-21T02:04:16;96999.82;;;6.37;100.00
50011;BME280;35899;50.352;19.390;2023-02-21T02:06:43;96993.64;;;6.37;100.00
50011;BME280;35899;50.352;19.390;2023-02-21T02:09:19;96999.51;;;6.36;100.00
50011;BME280;35899;50.352;19.390;2023-02-21T02:16:53;96999.02;;;6.36;100.00
50011;BME280;35899;50.352;19.390;2023-02-21T02:24:54;96995.86;;;6.35;100.00
50011;BME280;35899;50.352;19.390;2023-02-21T02:27:36;96992.37;;;6.35;100.00
50011;BME280;35899;50.352;19.390;2023-02-21T02:30:15;96995.63;;;6.36;100.00
50011;BME280;35899;50.352;19.390;2023-02-21T02:32:53;96990.98;;;6.35;100.00
50011;BME280;35899;50.352;19.390;2023-02-21T02:35:42;96994.30;;;6.35;100.00
50011;BME280;35899;50.352;19.390;2023-02-21T02:43:25;96994.63;;;6.33;100.00
50011;BME280;35899;50.352;19.390;2023-02-21T02:45:57;96986.45;;;6.32;100.00
50011;BME280;35899;50.352;19.390;2023-02-21T02:51:06;96994.40;;;6.31;100.00
50011;BME280;35899;50.352;19.390;2023-02-21T02:53:34;97000.95;;;6.31;100.00
50011;BME280;35899;50.352;19.390;2023-02-21T02:56:02;96993.67;;;6.29;100.00
50011;BME280;35899;50.352;19.390;2023-02-21T02:58:38;96995.09;;;6.29;100.00
50011;BME280;35899;50.352;19.390;2023-02-21T03:04:02;96991.54;;;6.28;100.00
50011;BME280;35899;50.352;19.390;2023-02-21T03:06:39;96994.73;;;6.29;100.00
50011;BME280;35899;50.352;19.390;2023-02-21T03:09:13;96990.95;;;6.29;100.00
50011;BME280;35899;50.352;19.390;2023-02-21T03:11:46;96998.28;;;6.30;100.00
50011;BME280;35899;50.352;19.390;2023-02-21T03:14:15;96993.84;;;6.29;100.00
50011;BME280;35899;50.352;19.390;2023-02-21T03:16:45;96992.45;;;6.29;100.00
50011;BME280;35899;50.352;19.390;2023-02-21T03:19:13;96987.64;;;6.29;100.00
50011;BME280;35899;50.352;19.390;2023-02-21T03:21:44;96984.91;;;6.29;100.00
50011;BME280;35899;50.352;19.390;2023-02-21T03:24:12;96985.25;;;6.29;100.00
50011;BME280;35899;50.352;19.390;2023-02-21T03:26:40;96985.61;;;6.29;100.00
50011;BME280;35899;50.352;19.390;2023-02-21T03:29:28;96986.30;;;6.29;100.00
50011;BME280;35899;50.352;19.390;2023-02-21T03:31:57;96983.90;;;6.29;100.00
50011;BME280;35899;50.352;19.390;2023-02-21T03:34:26;96978.23;;;6.29;100.00
50011;BME280;35899;50.352;19.390;2023-02-21T03:36:52;96980.73;;;6.30;100.00
50011;BME280;35899;50.352;19.390;2023-02-21T03:39:19;96977.46;;;6.30;100.00
50011;BME280;35899;50.352;19.390;2023-02-21T03:41:46;96976.22;;;6.30;100.00
50011;BME280;35899;50.352;19.390;2023-02-21T03:44:12;96979.88;;;6.30;100.00
50011;BME280;35899;50.352;19.390;2023-02-21T03:46:38;96979.14;;;6.30;100.00
50011;BME280;35899;50.352;19.390;2023-02-21T03:49:07;96971.36;;;6.31;100.00
50011;BME280;35899;50.352;19.390;2023-02-21T03:51:34;96978.74;;;6.31;100.00
50011;BME280;35899;50.352;19.390;2023-02-21T03:54:00;96979.59;;;6.32;100.00
50011;BME280;35899;50.352;19.390;2023-02-21T03:56:33;96983.48;;;6.30;100.00
50011;BME280;35899;50.352;19.390;2023-02-21T03:59:34;96975.43;;;6.30;100.00
50011;BME280;35899;50.352;19.390;2023-02-21T04:02:01;96986.80;;;6.29;100.00
50011;BME280;35899;50.352;19.390;2023-02-21T04:04:30;96991.25;;;6.29;100.00
50011;BME280;35899;50.352;19.390;2023-02-21T04:07:05;96989.26;;;6.29;100.00
50011;BME280;35899;50.352;19.390;2023-02-21T04:09:32;96989.07;;;6.29;100.00
50011;BME280;35899;50.352;19.390;2023-02-21T04:11:59;96989.75;;;6.28;100.00
50011;BME280;35899;50.352;19.390;2023-02-21T04:14:26;96991.15;;;6.28;100.00
50011;BME280;35899;50.352;19.390;2023-02-21T04:16:53;96993.39;;;6.28;100.00
50011;BME280;35899;50.352;19.390;2023-02-21T04:19:21;96994.44;;;6.28;100.00
50011;BME280;35899;50.352;19.390;2023-02-21T04:21:47;96995.52;;;6.27;100.00
50011;BME280;35899;50.352;19.390;2023-02-21T04:24:14;96997.44;;;6.26;100.00
50011;BME280;35899;50.352;19.390;2023-02-21T04:26:40;96998.86;;;6.25;100.00
50011;BME280;35899;50.352;19.390;2023-02-21T04:29:07;97002.30;;;6.25;100.00
50011;BME280;35899;50.352;19.390;2023-02-21T04:31:33;96995.45;;;6.25;100.00
50011;BME280;35899;50.352;19.390;2023-02-21T04:34:04;96998.77;;;6.24;100.00
50011;BME280;35899;50.352;19.390;2023-02-21T04:36:41;96993.99;;;6.24;100.00
50011;BME280;35899;50.352;19.390;2023-02-21T04:39:08;96989.55;;;6.23;100.00
50011;BME280;35899;50.352;19.390;2023-02-21T04:41:35;96986.70;;;6.23;100.00
50011;BME280;35899;50.352;19.390;2023-02-21T04:44:01;96985.19;;;6.22;100.00
50011;BME280;35899;50.352;19.390;2023-02-21T04:46:31;96985.33;;;6.22;100.00
50011;BME280;35899;50.352;19.390;2023-02-21T04:48:57;96988.18;;;6.21;100.00
50011;BME280;35899;50.352;19.390;2023-02-21T04:51:24;96985.91;;;6.21;100.00
50011;BME280;35899;50.352;19.390;2023-02-21T04:53:51;96988.30;;;6.22;100.00
50011;BME280;35899;50.352;19.390;2023-02-21T04:56:18;96983.45;;;6.22;100.00
50011;BME280;35899;50.352;19.390;2023-02-21T04:58:45;96991.00;;;6.22;100.00
50011;BME280;35899;50.352;19.390;2023-02-21T05:01:12;96981.23;;;6.22;100.00
50011;BME280;35899;50.352;19.390;2023-02-21T05:03:40;96980.86;;;6.22;100.00
50011;BME280;35899;50.352;19.390;2023-02-21T05:06:06;96985.82;;;6.22;100.00
50011;BME280;35899;50.352;19.390;2023-02-21T05:08:34;96988.55;;;6.23;100.00
50011;BME280;35899;50.352;19.390;2023-02-21T05:11:00;96982.13;;;6.24;100.00
50011;BME280;35899;50.352;19.390;2023-02-21T05:13:27;96984.23;;;6.23;100.00
50011;BME280;35899;50.352;19.390;2023-02-21T05:15:53;96980.77;;;6.24;100.00
50011;BME280;35899;50.352;19.390;2023-02-21T05:18:19;96967.52;;;6.24;100.00
50011;BME280;35899;50.352;19.390;2023-02-21T05:20:46;96967.00;;;6.24;100.00
50011;BME280;35899;50.352;19.390;2023-02-21T05:23:13;96970.88;;;6.25;100.00
50011;BME280;35899;50.352;19.390;2023-02-21T05:25:40;96967.42;;;6.25;100.00
50011;BME280;35899;50.352;19.390;2023-02-21T05:28:06;96975.11;;;6.26;100.00
50011;BME280;35899;50.352;19.390;2023-02-21T05:30:32;96958.27;;;6.26;100.00
50011;BME280;35899;50.352;19.390;2023-02-21T05:32:59;96970.80;;;6.26;100.00
50011;BME280;35899;50.352;19.390;2023-02-21T05:35:25;96966.49;;;6.27;100.00
50011;BME280;35899;50.352;19.390;2023-02-21T05:37:52;96971.66;;;6.27;100.00
50011;BME280;35899;50.352;19.390;2023-02-21T05:40:18;96969.59;;;6.27;100.00
50011;BME280;35899;50.352;19.390;2023-02-21T05:42:45;96972.05;;;6.25;100.00
50011;BME280;35899;50.352;19.390;2023-02-21T05:45:11;96978.59;;;6.25;100.00
50011;BME280;35899;50.352;19.390;2023-02-21T05:47:37;96979.62;;;6.26;100.00
50011;BME280;35899;50.352;19.390;2023-02-21T05:50:04;96971.52;;;6.26;100.00
50011;BME280;35899;50.352;19.390;2023-02-21T05:52:32;96968.26;;;6.26;100.00
50011;BME280;35899;50.352;19.390;2023-02-21T05:54:58;96978.23;;;6.26;100.00
50011;BME280;35899;50.352;19.390;2023-02-21T05:57:24;96971.01;;;6.26;100.00
50011;BME280;35899;50.352;19.390;2023-02-21T05:59:51;96978.52;;;6.27;100.00
50011;BME280;35899;50.352;19.390;2023-02-21T06:02:37;96980.17;;;6.28;100.00
50011;BME280;35899;50.352;19.390;2023-02-21T06:05:04;96991.09;;;6.29;100.00
50011;BME280;35899;50.352;19.390;2023-02-21T06:07:30;96992.21;;;6.30;100.00
50011;BME280;35899;50.352;19.390;2023-02-21T06:09:57;96988.14;;;6.32;100.00
50011;BME280;35899;50.352;19.390;2023-02-21T06:12:23;96987.77;;;6.32;100.00
50011;BME280;35899;50.352;19.390;2023-02-21T06:14:49;96994.27;;;6.33;100.00
50011;BME280;35899;50.352;19.390;2023-02-21T06:17:16;96995.55;;;6.34;100.00
50011;BME280;35899;50.352;19.390;2023-02-21T06:19:42;96994.52;;;6.37;100.00
50011;BME280;35899;50.352;19.390;2023-02-21T06:22:08;96998.34;;;6.39;100.00
50011;BME280;35899;50.352;19.390;2023-02-21T06:24:35;96997.22;;;6.40;100.00
50011;BME280;35899;50.352;19.390;2023-02-21T06:27:01;96994.30;;;6.40;100.00
50011;BME280;35899;50.352;19.390;2023-02-21T06:29:28;96999.03;;;6.41;100.00
50011;BME280;35899;50.352;19.390;2023-02-21T06:31:57;96992.23;;;6.42;100.00
50011;BME280;35899;50.352;19.390;2023-02-21T06:34:24;97014.85;;;6.43;100.00
50011;BME280;35899;50.352;19.390;2023-02-21T06:36:51;97011.36;;;6.44;100.00
50011;BME280;35899;50.352;19.390;2023-02-21T06:39:18;97015.02;;;6.46;100.00
50011;BME280;35899;50.352;19.390;2023-02-21T06:41:44;97009.23;;;6.45;100.00
50011;BME280;35899;50.352;19.390;2023-02-21T06:44:10;97012.42;;;6.46;100.00
50011;BME280;35899;50.352;19.390;2023-02-21T06:46:37;97020.03;;;6.45;100.00
50011;BME280;35899;50.352;19.390;2023-02-21T06:49:04;97018.98;;;6.46;100.00
50011;BME280;35899;50.352;19.390;2023-02-21T06:51:37;97029.66;;;6.51;100.00
50011;BME280;35899;50.352;19.390;2023-02-21T06:54:04;97020.23;;;6.55;100.00
50011;BME280;35899;50.352;19.390;2023-02-21T06:56:30;97025.54;;;6.61;100.00
50011;BME280;35899;50.352;19.390;2023-02-21T06:58:56;97020.81;;;6.64;100.00
50011;BME280;35899;50.352;19.390;2023-02-21T07:01:26;97026.54;;;6.72;100.00
50011;BME280;35899;50.352;19.390;2023-02-21T07:03:54;97020.94;;;6.75;100.00
50011;BME280;35899;50.352;19.390;2023-02-21T07:06:20;97024.06;;;6.75;100.00
50011;BME280;35899;50.352;19.390;2023-02-21T07:08:47;97031.27;;;6.77;100.00
50011;BME280;35899;50.352;19.390;2023-02-21T07:11:14;97034.29;;;6.79;100.00
50011;BME280;35899;50.352;19.390;2023-02-21T07:13:40;97037.66;;;6.87;100.00
50011;BME280;35899;50.352;19.390;2023-02-21T07:16:07;97040.83;;;6.98;100.00
50011;BME280;35899;50.352;19.390;2023-02-21T07:18:33;97039.61;;;6.96;100.00
50011;BME280;35899;50.352;19.390;2023-02-21T07:21:00;97046.26;;;7.02;100.00
50011;BME280;35899;50.352;19.390;2023-02-21T07:23:26;97052.10;;;7.04;100.00
50011;BME280;35899;50.352;19.390;2023-02-21T07:25:53;97050.82;;;7.00;100.00
50011;BME280;35899;50.352;19.390;2023-02-21T07:28:19;97044.84;;;7.00;100.00
50011;BME280;35899;50.352;19.390;2023-02-21T07:30:46;97045.67;;;7.08;100.00
50011;BME280;35899;50.352;19.390;2023-02-21T07:33:12;97044.98;;;7.08;100.00
50011;BME280;35899;50.352;19.390;2023-02-21T07:35:39;97037.96;;;7.10;100.00
50011;BME280;35899;50.352;19.390;2023-02-21T07:38:05;97034.79;;;7.11;100.00
50011;BME280;35899;50.352;19.390;2023-02-21T07:40:32;97034.99;;;7.11;100.00
50011;BME280;35899;50.352;19.390;2023-02-21T07:42:58;97030.84;;;7.08;100.00
50011;BME280;35899;50.352;19.390;2023-02-21T07:45:24;97039.48;;;7.08;100.00
50011;BME280;35899;50.352;19.390;2023-02-21T07:47:51;97031.91;;;7.13;100.00
50011;BME280;35899;50.352;19.390;2023-02-21T07:50:17;97038.56;;;7.21;100.00
50011;BME280;35899;50.352;19.390;2023-02-21T07:52:44;97042.34;;;7.19;100.00
50011;BME280;35899;50.352;19.390;2023-02-21T07:55:10;97042.70;;;7.18;100.00
50011;BME280;35899;50.352;19.390;2023-02-21T07:57:37;97040.20;;;7.27;100.00
50011;BME280;35899;50.352;19.390;2023-02-21T08:00:04;97041.19;;;7.37;100.00
50011;BME280;35899;50.352;19.390;2023-02-21T08:02:38;97039.98;;;7.32;100.00
50011;BME280;35899;50.352;19.390;2023-02-21T08:05:06;97047.89;;;7.25;100.00
50011;BME280;35899;50.352;19.390;2023-02-21T08:07:34;97055.08;;;7.19;100.00
50011;BME280;35899;50.352;19.390;2023-02-21T08:10:00;97054.48;;;7.15;100.00
50011;BME280;35899;50.352;19.390;2023-02-21T08:12:27;97066.52;;;7.15;100.00
50011;BME280;35899;50.352;19.390;2023-02-21T08:14:54;97058.66;;;7.21;100.00
50011;BME280;35899;50.352;19.390;2023-02-21T08:17:20;97063.98;;;7.26;100.00
50011;BME280;35899;50.352;19.390;2023-02-21T08:19:47;97065.67;;;7.27;100.00
50011;BME280;35899;50.352;19.390;2023-02-21T08:22:13;97072.86;;;7.25;100.00
50011;BME280;35899;50.352;19.390;2023-02-21T08:24:40;97067.83;;;7.21;100.00
50011;BME280;35899;50.352;19.390;2023-02-21T08:27:06;97071.11;;;7.15;100.00
50011;BME280;35899;50.352;19.390;2023-02-21T08:29:33;97069.83;;;7.12;100.00
50011;BME280;35899;50.352;19.390;2023-02-21T08:31:59;97070.63;;;7.10;100.00
50011;BME280;35899;50.352;19.390;2023-02-21T08:34:26;97070.08;;;7.11;100.00
50011;BME280;35899;50.352;19.390;2023-02-21T08:36:52;97073.83;;;7.14;100.00
50011;BME280;35899;50.352;19.390;2023-02-21T08:39:18;97077.81;;;7.18;100.00
50011;BME280;35899;50.352;19.390;2023-02-21T08:41:45;97076.48;;;7.27;100.00
50011;BME280;35899;50.352;19.390;2023-02-21T08:44:12;97078.23;;;7.42;100.00
50011;BME280;35899;50.352;19.390;2023-02-21T08:46:39;97078.95;;;7.54;100.00
50011;BME280;35899;50.352;19.390;2023-02-21T08:49:06;97090.80;;;7.58;100.00
50011;BME280;35899;50.352;19.390;2023-02-21T08:51:32;97090.02;;;7.62;100.00
50011;BME280;35899;50.352;19.390;2023-02-21T08:53:59;97092.08;;;7.72;100.00
50011;BME280;35899;50.352;19.390;2023-02-21T08:56:26;97087.96;;;7.76;100.00
50011;BME280;35899;50.352;19.390;2023-02-21T08:58:53;97098.42;;;7.70;100.00
50011;BME280;35899;50.352;19.390;2023-02-21T09:01:20;97110.25;;;7.59;100.00
50011;BME280;35899;50.352;19.390;2023-02-21T09:03:47;97109.11;;;7.48;100.00
50011;BME280;35899;50.352;19.390;2023-02-21T09:06:13;97107.61;;;7.42;100.00
50011;BME280;35899;50.352;19.390;2023-02-21T09:08:40;97109.45;;;7.43;100.00
50011;BME280;35899;50.352;19.390;2023-02-21T09:11:07;97113.67;;;7.49;100.00
50011;BME280;35899;50.352;19.390;2023-02-21T09:13:33;97113.71;;;7.49;100.00
50011;BME280;35899;50.352;19.390;2023-02-21T09:16:00;97112.12;;;7.52;100.00
50011;BME280;35899;50.352;19.390;2023-02-21T09:18:28;97108.53;;;7.58;100.00
50011;BME280;35899;50.352;19.390;2023-02-21T09:20:55;97117.34;;;7.66;100.00
50011;BME280;35899;50.352;19.390;2023-02-21T09:23:25;97118.83;;;7.69;100.00
50011;BME280;35899;50.352;19.390;2023-02-21T09:25:52;97116.02;;;7.72;100.00
50011;BME280;35899;50.352;19.390;2023-02-21T09:28:18;97130.36;;;7.69;100.00
50011;BME280;35899;50.352;19.390;2023-02-21T09:30:45;97127.48;;;7.69;100.00
50011;BME280;35899;50.352;19.390;2023-02-21T09:33:12;97124.63;;;7.77;100.00
50011;BME280;35899;50.352;19.390;2023-02-21T09:35:39;97116.20;;;7.84;100.00
50011;BME280;35899;50.352;19.390;2023-02-21T09:38:06;97118.55;;;7.94;100.00
50011;BME280;35899;50.352;19.390;2023-02-21T09:40:35;97113.96;;;8.12;100.00
50011;BME280;35899;50.352;19.390;2023-02-21T09:43:02;97106.05;;;8.31;100.00
50011;BME280;35899;50.352;19.390;2023-02-21T09:45:31;97107.05;;;8.48;100.00
50011;BME280;35899;50.352;19.390;2023-02-21T09:48:00;97108.30;;;8.54;100.00
50011;BME280;35899;50.352;19.390;2023-02-21T09:50:28;97100.59;;;8.88;100.00
50011;BME280;35899;50.352;19.390;2023-02-21T09:52:57;97110.86;;;9.32;100.00
50011;BME280;35899;50.352;19.390;2023-02-21T09:55:28;97117.70;;;9.72;100.00
50011;BME280;35899;50.352;19.390;2023-02-21T09:57:56;97121.10;;;10.18;100.00
50011;BME280;35899;50.352;19.390;2023-02-21T10:05:38;97116.00;;;11.05;100.00
50011;BME280;35899;50.352;19.390;2023-02-21T10:10:41;97114.89;;;11.92;100.00
50011;BME280;35899;50.352;19.390;2023-02-21T10:18:40;97125.91;;;11.31;100.00
50011;BME280;35899;50.352;19.390;2023-02-21T10:21:13;97130.11;;;10.98;100.00
50011;BME280;35899;50.352;19.390;2023-02-21T10:23:45;97130.70;;;10.62;100.00
50011;BME280;35899;50.352;19.390;2023-02-21T10:26:16;97135.27;;;10.25;100.00
50011;BME280;35899;50.352;19.390;2023-02-21T10:28:45;97140.54;;;9.94;100.00
50011;BME280;35899;50.352;19.390;2023-02-21T10:31:15;97138.91;;;9.68;100.00
50011;BME280;35899;50.352;19.390;2023-02-21T10:33:43;97152.69;;;9.38;100.00
50011;BME280;35899;50.352;19.390;2023-02-21T10:36:10;97153.92;;;9.08;100.00
50011;BME280;35899;50.352;19.390;2023-02-21T10:38:37;97158.16;;;8.84;100.00
50011;BME280;35899;50.352;19.390;2023-02-21T10:41:04;97163.47;;;8.64;100.00
50011;BME280;35899;50.352;19.390;2023-02-21T10:43:48;97162.88;;;8.49;100.00
50011;BME280;35899;50.352;19.390;2023-02-21T10:48:55;97171.44;;;8.32;100.00
50011;BME280;35899;50.352;19.390;2023-02-21T10:51:29;97174.48;;;8.24;100.00
50011;BME280;35899;50.352;19.390;2023-02-21T10:54:19;97180.88;;;8.16;100.00
50011;BME280;35899;50.352;19.390;2023-02-21T10:56:47;97168.33;;;8.14;100.00
50011;BME280;35899;50.352;19.390;2023-02-21T11:01:46;97171.30;;;8.08;100.00
50011;BME280;35899;50.352;19.390;2023-02-21T11:07:09;97173.07;;;7.98;100.00
50011;BME280;35899;50.352;19.390;2023-02-21T11:09:45;97169.52;;;7.95;100.00
50011;BME280;35899;50.352;19.390;2023-02-21T11:14:43;97171.84;;;7.91;100.00
50011;BME280;35899;50.352;19.390;2023-02-21T11:19:47;97176.00;;;7.88;100.00
50011;BME280;35899;50.352;19.390;2023-02-21T11:22:15;97179.00;;;7.92;100.00
50011;BME280;35899;50.352;19.390;2023-02-21T11:27:11;97177.24;;;7.90;100.00
50011;BME280;35899;50.352;19.390;2023-02-21T11:29:40;97174.42;;;7.87;100.00
50011;BME280;35899;50.352;19.390;2023-02-21T11:32:09;97175.70;;;7.83;100.00
50011;BME280;35899;50.352;19.390;2023-02-21T11:34:37;97180.40;;;7.82;100.00
50011;BME280;35899;50.352;19.390;2023-02-21T11:37:03;97176.33;;;7.79;100.00
50011;BME280;35899;50.352;19.390;2023-02-21T11:39:32;97178.64;;;7.75;100.00
50011;BME280;35899;50.352;19.390;2023-02-21T11:42:00;97183.91;;;7.74;100.00
50011;BME280;35899;50.352;19.390;2023-02-21T11:47:06;97191.95;;;7.84;100.00
50011;BME280;35899;50.352;19.390;2023-02-21T11:55:02;97196.27;;;8.16;100.00
50011;BME280;35899;50.352;19.390;2023-02-21T12:00:12;97190.20;;;8.78;100.00
50011;BME280;35899;50.352;19.390;2023-02-21T12:02:54;97191.77;;;8.80;100.00
50011;BME280;35899;50.352;19.390;2023-02-21T12:05:30;97197.71;;;8.67;100.00
50011;BME280;35899;50.352;19.390;2023-02-21T12:10:34;97186.77;;;8.33;100.00
50011;BME280;35899;50.352;19.390;2023-02-21T12:18:27;97190.08;;;8.54;100.00
50011;BME280;35899;50.352;19.390;2023-02-21T12:23:53;97189.04;;;11.06;100.00
50011;BME280;35899;50.352;19.390;2023-02-21T12:26:43;97185.12;;;13.40;100.00
50011;BME280;35899;50.352;19.390;2023-02-21T12:31:54;97183.06;;;17.03;88.31
50011;BME280;35899;50.352;19.390;2023-02-21T12:50:54;97173.46;;;14.60;82.41
50011;BME280;35899;50.352;19.390;2023-02-21T12:53:47;97180.15;;;14.28;82.77
50011;BME280;35899;50.352;19.390;2023-02-21T12:56:17;97185.02;;;13.46;84.60
50011;BME280;35899;50.352;19.390;2023-02-21T13:01:22;97179.39;;;13.39;86.85
50011;BME280;35899;50.352;19.390;2023-02-21T13:08:57;97168.88;;;17.83;78.04
50011;BME280;35899;50.352;19.390;2023-02-21T13:13:51;97175.06;;;17.61;73.34
50011;BME280;35899;50.352;19.390;2023-02-21T13:16:18;97174.39;;;16.60;75.04
50011;BME280;35899;50.352;19.390;2023-02-21T13:18:46;97176.98;;;15.72;76.19
50011;BME280;35899;50.352;19.390;2023-02-21T13:29:26;97185.29;;;13.33;80.53
50011;BME280;35899;50.352;19.390;2023-02-21T13:34:28;97188.19;;;12.46;82.40
50011;BME280;35899;50.352;19.390;2023-02-21T13:36:59;97189.34;;;12.20;82.95
50011;BME280;35899;50.352;19.390;2023-02-21T13:39:27;97185.95;;;11.85;84.92
50011;BME280;35899;50.352;19.390;2023-02-21T13:41:55;97187.70;;;11.48;86.39
50011;BME280;35899;50.352;19.390;2023-02-21T13:49:42;97199.73;;;10.51;88.83
50011;BME280;35899;50.352;19.390;2023-02-21T13:55:09;97200.75;;;10.30;89.96
50011;BME280;35899;50.352;19.390;2023-02-21T13:57:35;97206.48;;;10.38;90.80
50011;BME280;35899;50.352;19.390;2023-02-21T14:08:32;97198.73;;;10.58;90.94
50011;BME280;35899;50.352;19.390;2023-02-21T14:21:03;97210.34;;;10.36;92.98
50011;BME280;35899;50.352;19.390;2023-02-21T14:23:49;97213.50;;;10.17;92.94
50011;BME280;35899;50.352;19.390;2023-02-21T14:26:39;97212.24;;;9.94;92.89
50011;BME280;35899;50.352;19.390;2023-02-21T14:31:49;97220.61;;;9.60;93.96
50011;BME280;35899;50.352;19.390;2023-02-21T14:35:00;97224.02;;;9.45;93.88
50011;BME280;35899;50.352;19.390;2023-02-21T15:01:13;97233.14;;;9.11;97.24
50011;BME280;35899;50.352;19.390;2023-02-21T15:03:47;97239.14;;;9.09;96.98
50011;BME280;35899;50.352;19.390;2023-02-21T15:06:18;97237.42;;;9.09;96.79
50011;BME280;35899;50.352;19.390;2023-02-21T15:09:12;97241.72;;;9.05;96.39
50011;BME280;35899;50.352;19.390;2023-02-21T15:11:39;97242.05;;;8.96;96.58
50011;BME280;35899;50.352;19.390;2023-02-21T15:14:13;97245.21;;;8.88;96.10
50011;BME280;35899;50.352;19.390;2023-02-21T15:16:42;97244.79;;;8.77;95.48
50011;BME280;35899;50.352;19.390;2023-02-21T15:19:18;97252.14;;;8.69;95.51
50011;BME280;35899;50.352;19.390;2023-02-21T15:21:45;97247.33;;;8.61;95.57
50011;BME280;35899;50.352;19.390;2023-02-21T15:24:13;97247.47;;;8.54;95.52
50011;BME280;35899;50.352;19.390;2023-02-21T15:30:14;97247.33;;;8.47;95.41
50011;BME280;35899;50.352;19.390;2023-02-21T15:32:42;97253.03;;;8.49;95.51
50011;BME280;35899;50.352;19.390;2023-02-21T15:35:14;97252.75;;;8.48;95.71
50011;BME280;35899;50.352;19.390;2023-02-21T15:37:43;97252.77;;;8.46;95.89
50011;BME280;35899;50.352;19.390;2023-02-21T15:40:20;97251.79;;;8.45;96.05
50011;BME280;35899;50.352;19.390;2023-02-21T15:43:21;97256.42;;;8.45;95.78
50011;BME280;35899;50.352;19.390;2023-02-21T15:45:48;97261.63;;;8.39;95.04
50011;BME280;35899;50.352;19.390;2023-02-21T15:48:17;97264.05;;;8.34;95.45
50011;BME280;35899;50.352;19.390;2023-02-21T15:50:44;97263.95;;;8.29;95.51
50011;BME280;35899;50.352;19.390;2023-02-21T15:53:15;97264.42;;;8.22;95.70